sensor_id;sensor_type;location;lat;lon;timestamp;P1;durP1;ratioP1;P2;durP2;ratioP2
51594;SDS011;37677;53.254;6.594;2023-08-07T00:07:20;6.15;;;4.00;;
51594;SDS011;37677;53.254;6.594;2023-08-07T00:09:50;7.13;;;4.32;;
51594;SDS011;37677;53.254;6.594;2023-08-07T00:15:12;10.48;;;4.47;;
51594;SDS011;37677;53.254;6.594;2023-08-07T00:17:47;9.57;;;4.35;;
51594;SDS011;37677;53.254;6.594;2023-08-07T00:20:15;6.13;;;3.88;;
51594;SDS011;37677;53.254;6.594;2023-08-07T00:26:05;10.00;;;4.53;;
51594;SDS011;37677;53.254;6.594;2023-08-07T00:31:43;7.20;;;3.92;;
51594;SDS011;37677;53.254;6.594;2023-08-07T00:37:28;6.07;;;3.47;;
51594;SDS011;37677;53.254;6.594;2023-08-07T00:40:13;8.90;;;3.50;;
51594;SDS011;37677;53.254;6.594;2023-08-07T00:46:17;6.75;;;3.50;;
51594;SDS011;37677;53.254;6.594;2023-08-07T00:49:11;4.88;;;3.40;;
51594;SDS011;37677;53.254;6.594;2023-08-07T00:51:45;6.53;;;3.72;;
51594;SDS011;37677;53.254;6.594;2023-08-07T00:54:25;5.05;;;3.42;;
51594;SDS011;37677;53.254;6.594;2023-08-07T00:56:58;4.70;;;3.10;;
51594;SDS011;37677;53.254;6.594;2023-08-07T00:59:42;8.60;;;4.07;;
51594;SDS011;37677;53.254;6.594;2023-08-07T01:02:14;5.93;;;3.03;;
51594;SDS011;37677;53.254;6.594;2023-08-07T01:07:26;7.28;;;3.25;;
51594;SDS011;37677;53.254;6.594;2023-08-07T01:10:02;4.93;;;2.97;;
51594;SDS011;37677;53.254;6.594;2023-08-07T01:12:48;7.30;;;3.05;;
51594;SDS011;37677;53.254;6.594;2023-08-07T01:15:30;6.05;;;3.00;;
51594;SDS011;37677;53.254;6.594;2023-08-07T01:18:25;5.35;;;2.70;;
51594;SDS011;37677;53.254;6.594;2023-08-07T01:21:15;4.97;;;3.00;;
51594;SDS011;37677;53.254;6.594;2023-08-07T01:26:55;4.43;;;2.50;;
51594;SDS011;37677;53.254;6.594;2023-08-07T01:35:20;7.13;;;3.20;;
51594;SDS011;37677;53.254;6.594;2023-08-07T01:38:05;6.53;;;3.55;;
51594;SDS011;37677;53.254;6.594;2023-08-07T01:43:35;6.15;;;2.92;;
51594;SDS011;37677;53.254;6.594;2023-08-07T01:46:02;6.15;;;3.50;;
51594;SDS011;37677;53.254;6.594;2023-08-07T01:48:30;8.15;;;3.30;;
51594;SDS011;37677;53.254;6.594;2023-08-07T01:50:58;7.97;;;3.20;;
51594;SDS011;37677;53.254;6.594;2023-08-07T01:53:26;7.63;;;3.22;;
51594;SDS011;37677;53.254;6.594;2023-08-07T01:55:55;5.82;;;2.83;;
51594;SDS011;37677;53.254;6.594;2023-08-07T01:58:21;7.07;;;2.80;;
51594;SDS011;37677;53.254;6.594;2023-08-07T02:00:56;6.03;;;3.17;;
51594;SDS011;37677;53.254;6.594;2023-08-07T02:03:22;7.30;;;2.92;;
51594;SDS011;37677;53.254;6.594;2023-08-07T02:08:51;5.78;;;3.08;;
51594;SDS011;37677;53.254;6.594;2023-08-07T02:11:40;9.88;;;3.38;;
51594;SDS011;37677;53.254;6.594;2023-08-07T02:14:12;6.85;;;2.90;;
51594;SDS011;37677;53.254;6.594;2023-08-07T02:16:45;6.63;;;3.58;;
51594;SDS011;37677;53.254;6.594;2023-08-07T02:19:14;6.25;;;3.25;;
51594;SDS011;37677;53.254;6.594;2023-08-07T02:21:43;6.60;;;3.75;;
51594;SDS011;37677;53.254;6.594;2023-08-07T02:24:20;5.55;;;3.50;;
51594;SDS011;37677;53.254;6.594;2023-08-07T02:26:49;8.50;;;3.90;;
51594;SDS011;37677;53.254;6.594;2023-08-07T02:35:21;8.73;;;3.78;;
51594;SDS011;37677;53.254;6.594;2023-08-07T02:41:17;7.15;;;3.45;;
51594;SDS011;37677;53.254;6.594;2023-08-07T02:43:43;7.53;;;3.65;;
51594;SDS011;37677;53.254;6.594;2023-08-07T02:46:12;9.23;;;3.85;;
51594;SDS011;37677;53.254;6.594;2023-08-07T02:51:58;7.65;;;3.53;;
51594;SDS011;37677;53.254;6.594;2023-08-07T02:54:35;6.32;;;3.33;;
51594;SDS011;37677;53.254;6.594;2023-08-07T02:57:22;8.63;;;3.65;;
51594;SDS011;37677;53.254;6.594;2023-08-07T02:59:52;8.80;;;4.05;;
51594;SDS011;37677;53.254;6.594;2023-08-07T03:02:21;12.60;;;4.50;;
51594;SDS011;37677;53.254;6.594;2023-08-07T03:04:52;7.72;;;3.80;;
51594;SDS011;37677;53.254;6.594;2023-08-07T03:07:31;9.50;;;3.70;;
51594;SDS011;37677;53.254;6.594;2023-08-07T03:10:11;12.23;;;3.85;;
51594;SDS011;37677;53.254;6.594;2023-08-07T03:12:45;10.07;;;3.05;;
51594;SDS011;37677;53.254;6.594;2023-08-07T03:15:24;10.05;;;3.95;;
51594;SDS011;37677;53.254;6.594;2023-08-07T03:17:58;6.72;;;3.40;;
51594;SDS011;37677;53.254;6.594;2023-08-07T03:20:29;10.77;;;3.38;;
51594;SDS011;37677;53.254;6.594;2023-08-07T03:23:17;9.32;;;3.55;;
51594;SDS011;37677;53.254;6.594;2023-08-07T03:25:49;7.80;;;2.88;;
51594;SDS011;37677;53.254;6.594;2023-08-07T03:28:28;8.25;;;3.20;;
51594;SDS011;37677;53.254;6.594;2023-08-07T03:30:54;8.68;;;3.00;;
51594;SDS011;37677;53.254;6.594;2023-08-07T03:33:40;6.10;;;2.95;;
51594;SDS011;37677;53.254;6.594;2023-08-07T03:36:18;8.00;;;2.70;;
51594;SDS011;37677;53.254;6.594;2023-08-07T03:38:46;15.77;;;3.13;;
51594;SDS011;37677;53.254;6.594;2023-08-07T03:41:34;9.02;;;2.75;;
51594;SDS011;37677;53.254;6.594;2023-08-07T03:44:08;9.57;;;2.80;;
51594;SDS011;37677;53.254;6.594;2023-08-07T03:46:34;10.93;;;3.33;;
51594;SDS011;37677;53.254;6.594;2023-08-07T03:49:00;10.68;;;3.10;;
51594;SDS011;37677;53.254;6.594;2023-08-07T03:51:26;11.07;;;3.80;;
51594;SDS011;37677;53.254;6.594;2023-08-07T03:53:54;15.00;;;3.50;;
51594;SDS011;37677;53.254;6.594;2023-08-07T03:56:28;15.40;;;4.05;;
51594;SDS011;37677;53.254;6.594;2023-08-07T03:59:02;13.50;;;3.65;;
51594;SDS011;37677;53.254;6.594;2023-08-07T04:01:49;12.40;;;4.03;;
51594;SDS011;37677;53.254;6.594;2023-08-07T04:04:25;13.02;;;3.97;;
51594;SDS011;37677;53.254;6.594;2023-08-07T04:09:33;14.63;;;4.40;;
51594;SDS011;37677;53.254;6.594;2023-08-07T04:12:16;13.57;;;4.25;;
51594;SDS011;37677;53.254;6.594;2023-08-07T04:14:42;18.42;;;4.15;;
51594;SDS011;37677;53.254;6.594;2023-08-07T04:17:34;15.90;;;4.22;;
51594;SDS011;37677;53.254;6.594;2023-08-07T04:20:03;17.27;;;4.47;;
51594;SDS011;37677;53.254;6.594;2023-08-07T04:22:37;13.77;;;3.80;;
51594;SDS011;37677;53.254;6.594;2023-08-07T04:25:31;13.15;;;3.92;;
51594;SDS011;37677;53.254;6.594;2023-08-07T04:28:00;15.27;;;4.22;;
51594;SDS011;37677;53.254;6.594;2023-08-07T04:33:16;16.92;;;4.47;;
51594;SDS011;37677;53.254;6.594;2023-08-07T04:35:54;17.33;;;5.03;;
51594;SDS011;37677;53.254;6.594;2023-08-07T04:38:20;14.15;;;4.20;;
51594;SDS011;37677;53.254;6.594;2023-08-07T04:40:49;16.15;;;4.93;;
51594;SDS011;37677;53.254;6.594;2023-08-07T04:43:16;12.52;;;4.07;;
51594;SDS011;37677;53.254;6.594;2023-08-07T04:45:47;20.90;;;5.07;;
51594;SDS011;37677;53.254;6.594;2023-08-07T04:48:17;17.98;;;5.28;;
51594;SDS011;37677;53.254;6.594;2023-08-07T04:50:43;14.38;;;4.40;;
51594;SDS011;37677;53.254;6.594;2023-08-07T04:53:18;12.57;;;4.47;;
51594;SDS011;37677;53.254;6.594;2023-08-07T04:55:55;17.27;;;4.57;;
51594;SDS011;37677;53.254;6.594;2023-08-07T04:58:23;17.50;;;4.75;;
51594;SDS011;37677;53.254;6.594;2023-08-07T05:00:53;16.10;;;3.95;;
51594;SDS011;37677;53.254;6.594;2023-08-07T05:03:20;14.52;;;4.00;;
51594;SDS011;37677;53.254;6.594;2023-08-07T05:05:57;14.75;;;4.50;;
51594;SDS011;37677;53.254;6.594;2023-08-07T05:08:26;20.02;;;5.07;;
51594;SDS011;37677;53.254;6.594;2023-08-07T05:10:52;19.23;;;4.88;;
51594;SDS011;37677;53.254;6.594;2023-08-07T05:13:18;19.65;;;6.15;;
51594;SDS011;37677;53.254;6.594;2023-08-07T05:15:47;18.33;;;5.10;;
51594;SDS011;37677;53.254;6.594;2023-08-07T05:18:14;20.98;;;5.43;;
51594;SDS011;37677;53.254;6.594;2023-08-07T05:20:40;22.27;;;5.45;;
51594;SDS011;37677;53.254;6.594;2023-08-07T05:23:06;16.17;;;5.35;;
51594;SDS011;37677;53.254;6.594;2023-08-07T05:25:32;25.90;;;6.18;;
51594;SDS011;37677;53.254;6.594;2023-08-07T05:27:58;22.63;;;6.05;;
51594;SDS011;37677;53.254;6.594;2023-08-07T05:30:27;20.60;;;5.53;;
51594;SDS011;37677;53.254;6.594;2023-08-07T05:32:53;20.92;;;5.35;;
51594;SDS011;37677;53.254;6.594;2023-08-07T05:35:19;19.77;;;5.30;;
51594;SDS011;37677;53.254;6.594;2023-08-07T05:37:45;17.67;;;5.57;;
51594;SDS011;37677;53.254;6.594;2023-08-07T05:40:12;18.88;;;4.95;;
51594;SDS011;37677;53.254;6.594;2023-08-07T05:42:40;18.75;;;5.45;;
51594;SDS011;37677;53.254;6.594;2023-08-07T05:45:09;19.55;;;5.35;;
51594;SDS011;37677;53.254;6.594;2023-08-07T05:47:38;18.02;;;5.10;;
51594;SDS011;37677;53.254;6.594;2023-08-07T05:50:08;20.20;;;5.40;;
51594;SDS011;37677;53.254;6.594;2023-08-07T05:52:47;14.23;;;4.43;;
51594;SDS011;37677;53.254;6.594;2023-08-07T05:55:13;17.88;;;5.45;;
51594;SDS011;37677;53.254;6.594;2023-08-07T05:57:42;21.27;;;5.10;;
51594;SDS011;37677;53.254;6.594;2023-08-07T06:00:08;17.55;;;4.95;;
51594;SDS011;37677;53.254;6.594;2023-08-07T06:02:39;18.08;;;4.85;;
51594;SDS011;37677;53.254;6.594;2023-08-07T06:05:21;16.88;;;4.53;;
51594;SDS011;37677;53.254;6.594;2023-08-07T06:07:50;19.58;;;4.75;;
51594;SDS011;37677;53.254;6.594;2023-08-07T06:10:16;19.65;;;4.63;;
51594;SDS011;37677;53.254;6.594;2023-08-07T06:12:43;15.95;;;4.25;;
51594;SDS011;37677;53.254;6.594;2023-08-07T06:15:12;16.85;;;4.68;;
51594;SDS011;37677;53.254;6.594;2023-08-07T06:17:47;15.35;;;4.47;;
51594;SDS011;37677;53.254;6.594;2023-08-07T06:20:22;15.05;;;4.10;;
51594;SDS011;37677;53.254;6.594;2023-08-07T06:22:58;18.08;;;4.53;;
51594;SDS011;37677;53.254;6.594;2023-08-07T06:28:57;13.77;;;4.25;;
51594;SDS011;37677;53.254;6.594;2023-08-07T06:31:41;16.25;;;4.25;;
51594;SDS011;37677;53.254;6.594;2023-08-07T06:34:08;12.88;;;3.42;;
51594;SDS011;37677;53.254;6.594;2023-08-07T06:36:37;17.17;;;4.50;;
51594;SDS011;37677;53.254;6.594;2023-08-07T06:39:28;14.40;;;4.35;;
51594;SDS011;37677;53.254;6.594;2023-08-07T06:41:55;7.85;;;3.30;;
51594;SDS011;37677;53.254;6.594;2023-08-07T06:44:21;12.38;;;3.85;;
51594;SDS011;37677;53.254;6.594;2023-08-07T06:46:50;16.92;;;4.47;;
51594;SDS011;37677;53.254;6.594;2023-08-07T06:49:20;16.40;;;4.90;;
51594;SDS011;37677;53.254;6.594;2023-08-07T06:51:46;16.25;;;4.40;;
51594;SDS011;37677;53.254;6.594;2023-08-07T06:54:15;21.30;;;4.32;;
51594;SDS011;37677;53.254;6.594;2023-08-07T06:57:01;19.23;;;4.53;;
51594;SDS011;37677;53.254;6.594;2023-08-07T06:59:38;18.05;;;4.47;;
51594;SDS011;37677;53.254;6.594;2023-08-07T07:02:13;24.55;;;4.97;;
51594;SDS011;37677;53.254;6.594;2023-08-07T07:04:58;16.15;;;4.55;;
51594;SDS011;37677;53.254;6.594;2023-08-07T07:07:29;14.77;;;4.70;;
51594;SDS011;37677;53.254;6.594;2023-08-07T07:10:18;18.55;;;4.50;;
51594;SDS011;37677;53.254;6.594;2023-08-07T07:12:49;15.48;;;4.75;;
51594;SDS011;37677;53.254;6.594;2023-08-07T07:15:18;15.48;;;4.35;;
51594;SDS011;37677;53.254;6.594;2023-08-07T07:17:47;15.07;;;4.68;;
51594;SDS011;37677;53.254;6.594;2023-08-07T07:20:22;18.08;;;4.57;;
51594;SDS011;37677;53.254;6.594;2023-08-07T07:22:48;15.93;;;4.20;;
51594;SDS011;37677;53.254;6.594;2023-08-07T07:25:16;14.73;;;4.20;;
51594;SDS011;37677;53.254;6.594;2023-08-07T07:27:42;14.55;;;4.30;;
51594;SDS011;37677;53.254;6.594;2023-08-07T07:30:11;17.30;;;4.47;;
51594;SDS011;37677;53.254;6.594;2023-08-07T07:32:37;12.20;;;4.07;;
51594;SDS011;37677;53.254;6.594;2023-08-07T07:35:04;10.38;;;4.15;;
51594;SDS011;37677;53.254;6.594;2023-08-07T07:37:32;12.43;;;3.70;;
51594;SDS011;37677;53.254;6.594;2023-08-07T07:40:21;20.88;;;4.47;;
51594;SDS011;37677;53.254;6.594;2023-08-07T07:42:46;10.88;;;3.88;;
51594;SDS011;37677;53.254;6.594;2023-08-07T07:45:14;12.65;;;3.83;;
51594;SDS011;37677;53.254;6.594;2023-08-07T07:47:40;13.93;;;4.40;;
51594;SDS011;37677;53.254;6.594;2023-08-07T07:50:09;9.18;;;3.58;;
51594;SDS011;37677;53.254;6.594;2023-08-07T07:52:39;8.23;;;3.53;;
51594;SDS011;37677;53.254;6.594;2023-08-07T07:55:08;13.77;;;3.90;;
51594;SDS011;37677;53.254;6.594;2023-08-07T07:57:45;11.07;;;3.95;;
51594;SDS011;37677;53.254;6.594;2023-08-07T08:00:16;12.15;;;3.92;;
51594;SDS011;37677;53.254;6.594;2023-08-07T08:02:45;8.95;;;3.83;;
51594;SDS011;37677;53.254;6.594;2023-08-07T08:05:14;11.35;;;3.90;;
51594;SDS011;37677;53.254;6.594;2023-08-07T08:07:41;9.43;;;3.58;;
51594;SDS011;37677;53.254;6.594;2023-08-07T08:10:10;11.93;;;3.70;;
51594;SDS011;37677;53.254;6.594;2023-08-07T08:12:39;12.20;;;4.05;;
51594;SDS011;37677;53.254;6.594;2023-08-07T08:15:05;11.18;;;4.28;;
51594;SDS011;37677;53.254;6.594;2023-08-07T08:20:18;12.90;;;3.95;;
51594;SDS011;37677;53.254;6.594;2023-08-07T08:22:53;13.27;;;4.00;;
51594;SDS011;37677;53.254;6.594;2023-08-07T08:25:19;14.43;;;4.43;;
51594;SDS011;37677;53.254;6.594;2023-08-07T08:27:45;13.13;;;3.85;;
51594;SDS011;37677;53.254;6.594;2023-08-07T08:30:14;10.30;;;3.83;;
51594;SDS011;37677;53.254;6.594;2023-08-07T08:32:46;13.32;;;4.22;;
51594;SDS011;37677;53.254;6.594;2023-08-07T08:35:12;15.40;;;3.75;;
51594;SDS011;37677;53.254;6.594;2023-08-07T08:37:53;14.70;;;3.97;;
51594;SDS011;37677;53.254;6.594;2023-08-07T08:40:23;11.32;;;3.90;;
51594;SDS011;37677;53.254;6.594;2023-08-07T08:42:54;15.63;;;3.75;;
51594;SDS011;37677;53.254;6.594;2023-08-07T08:45:39;14.07;;;4.38;;
51594;SDS011;37677;53.254;6.594;2023-08-07T08:48:08;14.00;;;4.18;;
51594;SDS011;37677;53.254;6.594;2023-08-07T08:50:39;11.57;;;3.60;;
51594;SDS011;37677;53.254;6.594;2023-08-07T08:53:05;11.38;;;4.15;;
51594;SDS011;37677;53.254;6.594;2023-08-07T08:55:34;14.77;;;3.40;;
51594;SDS011;37677;53.254;6.594;2023-08-07T08:58:01;10.18;;;3.50;;
51594;SDS011;37677;53.254;6.594;2023-08-07T09:00:34;12.38;;;3.85;;
51594;SDS011;37677;53.254;6.594;2023-08-07T09:03:03;12.05;;;4.03;;
51594;SDS011;37677;53.254;6.594;2023-08-07T09:05:31;13.18;;;3.78;;
51594;SDS011;37677;53.254;6.594;2023-08-07T09:07:57;10.52;;;3.65;;
51594;SDS011;37677;53.254;6.594;2023-08-07T09:10:27;12.25;;;4.18;;
51594;SDS011;37677;53.254;6.594;2023-08-07T09:12:57;14.05;;;3.83;;
51594;SDS011;37677;53.254;6.594;2023-08-07T09:15:30;10.05;;;3.95;;
51594;SDS011;37677;53.254;6.594;2023-08-07T09:17:57;11.95;;;3.67;;
51594;SDS011;37677;53.254;6.594;2023-08-07T09:20:28;16.17;;;4.03;;
51594;SDS011;37677;53.254;6.594;2023-08-07T09:23:05;11.27;;;3.53;;
51594;SDS011;37677;53.254;6.594;2023-08-07T09:25:37;13.85;;;3.53;;
51594;SDS011;37677;53.254;6.594;2023-08-07T09:33:15;12.07;;;4.00;;
51594;SDS011;37677;53.254;6.594;2023-08-07T09:35:49;14.25;;;3.70;;
51594;SDS011;37677;53.254;6.594;2023-08-07T09:38:15;13.50;;;4.13;;
51594;SDS011;37677;53.254;6.594;2023-08-07T09:40:50;12.00;;;3.58;;
51594;SDS011;37677;53.254;6.594;2023-08-07T09:43:22;12.18;;;3.72;;
51594;SDS011;37677;53.254;6.594;2023-08-07T09:45:51;12.02;;;3.47;;
51594;SDS011;37677;53.254;6.594;2023-08-07T09:48:23;12.43;;;2.90;;
51594;SDS011;37677;53.254;6.594;2023-08-07T09:50:53;20.15;;;3.45;;
51594;SDS011;37677;53.254;6.594;2023-08-07T09:53:26;10.90;;;3.13;;
51594;SDS011;37677;53.254;6.594;2023-08-07T09:56:01;11.02;;;3.22;;
51594;SDS011;37677;53.254;6.594;2023-08-07T09:58:34;11.98;;;3.67;;
51594;SDS011;37677;53.254;6.594;2023-08-07T10:01:02;10.75;;;3.75;;
51594;SDS011;37677;53.254;6.594;2023-08-07T10:03:35;12.77;;;3.53;;
51594;SDS011;37677;53.254;6.594;2023-08-07T10:08:45;10.18;;;3.72;;
51594;SDS011;37677;53.254;6.594;2023-08-07T10:14:05;10.88;;;3.30;;
51594;SDS011;37677;53.254;6.594;2023-08-07T10:16:31;10.30;;;3.45;;
51594;SDS011;37677;53.254;6.594;2023-08-07T10:19:09;10.48;;;3.50;;
51594;SDS011;37677;53.254;6.594;2023-08-07T10:21:51;20.02;;;4.45;;
51594;SDS011;37677;53.254;6.594;2023-08-07T10:24:31;14.40;;;4.10;;
51594;SDS011;37677;53.254;6.594;2023-08-07T10:29:33;11.57;;;3.72;;
51594;SDS011;37677;53.254;6.594;2023-08-07T10:32:00;10.88;;;3.58;;
51594;SDS011;37677;53.254;6.594;2023-08-07T10:34:34;10.38;;;3.60;;
51594;SDS011;37677;53.254;6.594;2023-08-07T10:37:17;16.15;;;3.90;;
51594;SDS011;37677;53.254;6.594;2023-08-07T10:40:09;13.68;;;4.82;;
51594;SDS011;37677;53.254;6.594;2023-08-07T10:45:20;10.80;;;3.55;;
51594;SDS011;37677;53.254;6.594;2023-08-07T10:50:33;10.88;;;3.88;;
51594;SDS011;37677;53.254;6.594;2023-08-07T10:53:00;9.32;;;3.08;;
51594;SDS011;37677;53.254;6.594;2023-08-07T10:55:26;6.80;;;2.47;;
51594;SDS011;37677;53.254;6.594;2023-08-07T10:57:53;9.63;;;2.92;;
51594;SDS011;37677;53.254;6.594;2023-08-07T11:00:28;5.82;;;2.17;;
51594;SDS011;37677;53.254;6.594;2023-08-07T11:02:54;6.90;;;2.40;;
51594;SDS011;37677;53.254;6.594;2023-08-07T11:05:24;8.77;;;2.85;;
51594;SDS011;37677;53.254;6.594;2023-08-07T11:07:53;9.65;;;3.10;;
51594;SDS011;37677;53.254;6.594;2023-08-07T11:10:27;7.20;;;2.97;;
51594;SDS011;37677;53.254;6.594;2023-08-07T11:12:53;10.20;;;2.90;;
51594;SDS011;37677;53.254;6.594;2023-08-07T11:15:34;11.82;;;3.38;;
51594;SDS011;37677;53.254;6.594;2023-08-07T11:18:00;10.95;;;3.35;;
51594;SDS011;37677;53.254;6.594;2023-08-07T11:20:26;11.48;;;3.72;;
51594;SDS011;37677;53.254;6.594;2023-08-07T11:22:53;10.82;;;3.70;;
51594;SDS011;37677;53.254;6.594;2023-08-07T11:25:20;13.32;;;3.72;;
51594;SDS011;37677;53.254;6.594;2023-08-07T11:27:46;8.43;;;3.10;;
51594;SDS011;37677;53.254;6.594;2023-08-07T11:30:12;9.45;;;3.15;;
51594;SDS011;37677;53.254;6.594;2023-08-07T11:32:59;9.55;;;3.00;;
51594;SDS011;37677;53.254;6.594;2023-08-07T11:35:43;11.80;;;3.38;;
51594;SDS011;37677;53.254;6.594;2023-08-07T11:38:12;10.18;;;3.28;;
51594;SDS011;37677;53.254;6.594;2023-08-07T11:40:39;10.13;;;3.53;;
51594;SDS011;37677;53.254;6.594;2023-08-07T11:43:07;9.13;;;2.65;;
51594;SDS011;37677;53.254;6.594;2023-08-07T11:45:38;11.77;;;3.30;;
51594;SDS011;37677;53.254;6.594;2023-08-07T11:48:04;9.27;;;2.65;;
51594;SDS011;37677;53.254;6.594;2023-08-07T11:50:51;6.85;;;3.28;;
51594;SDS011;37677;53.254;6.594;2023-08-07T11:53:25;6.40;;;2.70;;
51594;SDS011;37677;53.254;6.594;2023-08-07T11:58:21;4.72;;;1.98;;
51594;SDS011;37677;53.254;6.594;2023-08-07T12:00:49;3.55;;;1.90;;
51594;SDS011;37677;53.254;6.594;2023-08-07T12:03:29;7.30;;;2.50;;
51594;SDS011;37677;53.254;6.594;2023-08-07T12:06:04;8.75;;;2.70;;
51594;SDS011;37677;53.254;6.594;2023-08-07T12:08:40;9.82;;;3.20;;
51594;SDS011;37677;53.254;6.594;2023-08-07T12:11:10;9.68;;;2.95;;
51594;SDS011;37677;53.254;6.594;2023-08-07T12:13:49;6.60;;;3.03;;
51594;SDS011;37677;53.254;6.594;2023-08-07T12:16:31;7.63;;;3.20;;
51594;SDS011;37677;53.254;6.594;2023-08-07T12:19:22;7.13;;;2.72;;
51594;SDS011;37677;53.254;6.594;2023-08-07T12:24:42;6.80;;;2.80;;
51594;SDS011;37677;53.254;6.594;2023-08-07T12:27:19;7.40;;;2.80;;
51594;SDS011;37677;53.254;6.594;2023-08-07T12:29:47;4.90;;;2.35;;
51594;SDS011;37677;53.254;6.594;2023-08-07T12:32:15;9.43;;;2.50;;
51594;SDS011;37677;53.254;6.594;2023-08-07T12:34:44;8.25;;;2.72;;
51594;SDS011;37677;53.254;6.594;2023-08-07T12:37:19;11.57;;;3.20;;
51594;SDS011;37677;53.254;6.594;2023-08-07T12:39:45;13.55;;;3.50;;
51594;SDS011;37677;53.254;6.594;2023-08-07T12:42:17;9.52;;;3.88;;
51594;SDS011;37677;53.254;6.594;2023-08-07T12:44:46;7.22;;;2.88;;
51594;SDS011;37677;53.254;6.594;2023-08-07T12:47:13;11.35;;;2.97;;
51594;SDS011;37677;53.254;6.594;2023-08-07T12:49:42;9.10;;;2.60;;
51594;SDS011;37677;53.254;6.594;2023-08-07T12:52:23;9.38;;;2.92;;
51594;SDS011;37677;53.254;6.594;2023-08-07T12:54:56;10.23;;;3.55;;
51594;SDS011;37677;53.254;6.594;2023-08-07T12:57:25;13.32;;;3.78;;
51594;SDS011;37677;53.254;6.594;2023-08-07T13:00:09;8.73;;;3.10;;
51594;SDS011;37677;53.254;6.594;2023-08-07T13:02:48;11.52;;;3.17;;
51594;SDS011;37677;53.254;6.594;2023-08-07T13:05:18;8.55;;;3.10;;
51594;SDS011;37677;53.254;6.594;2023-08-07T13:07:51;12.90;;;3.63;;
51594;SDS011;37677;53.254;6.594;2023-08-07T13:10:25;11.70;;;3.47;;
51594;SDS011;37677;53.254;6.594;2023-08-07T13:12:57;10.70;;;3.03;;
51594;SDS011;37677;53.254;6.594;2023-08-07T13:15:32;10.98;;;3.22;;
51594;SDS011;37677;53.254;6.594;2023-08-07T13:18:01;9.10;;;3.35;;
51594;SDS011;37677;53.254;6.594;2023-08-07T13:20:32;8.27;;;3.10;;
51594;SDS011;37677;53.254;6.594;2023-08-07T13:23:11;10.75;;;3.90;;
51594;SDS011;37677;53.254;6.594;2023-08-07T13:25:43;10.07;;;3.90;;
51594;SDS011;37677;53.254;6.594;2023-08-07T13:28:19;10.30;;;3.92;;
51594;SDS011;37677;53.254;6.594;2023-08-07T13:34:08;9.60;;;3.58;;
51594;SDS011;37677;53.254;6.594;2023-08-07T13:36:37;6.95;;;3.05;;
51594;SDS011;37677;53.254;6.594;2023-08-07T13:39:13;8.27;;;2.92;;
51594;SDS011;37677;53.254;6.594;2023-08-07T13:41:39;10.15;;;2.83;;
51594;SDS011;37677;53.254;6.594;2023-08-07T13:44:05;10.50;;;3.00;;
51594;SDS011;37677;53.254;6.594;2023-08-07T13:46:35;9.55;;;3.70;;
51594;SDS011;37677;53.254;6.594;2023-08-07T13:49:01;8.57;;;3.42;;
51594;SDS011;37677;53.254;6.594;2023-08-07T13:51:27;9.65;;;3.78;;
51594;SDS011;37677;53.254;6.594;2023-08-07T13:53:53;10.18;;;3.33;;
51594;SDS011;37677;53.254;6.594;2023-08-07T13:56:22;9.63;;;3.05;;
51594;SDS011;37677;53.254;6.594;2023-08-07T13:58:51;10.13;;;3.15;;
51594;SDS011;37677;53.254;6.594;2023-08-07T14:01:19;11.38;;;3.97;;
51594;SDS011;37677;53.254;6.594;2023-08-07T14:03:51;9.48;;;3.35;;
51594;SDS011;37677;53.254;6.594;2023-08-07T14:09:12;11.55;;;3.60;;
51594;SDS011;37677;53.254;6.594;2023-08-07T14:11:48;9.55;;;3.75;;
51594;SDS011;37677;53.254;6.594;2023-08-07T14:14:15;9.35;;;3.72;;
51594;SDS011;37677;53.254;6.594;2023-08-07T14:16:44;9.02;;;3.45;;
51594;SDS011;37677;53.254;6.594;2023-08-07T14:19:10;11.10;;;3.15;;
51594;SDS011;37677;53.254;6.594;2023-08-07T14:21:55;11.02;;;3.15;;
51594;SDS011;37677;53.254;6.594;2023-08-07T14:24:29;10.80;;;2.97;;
51594;SDS011;37677;53.254;6.594;2023-08-07T14:26:58;11.63;;;3.00;;
51594;SDS011;37677;53.254;6.594;2023-08-07T14:29:28;9.35;;;3.40;;
51594;SDS011;37677;53.254;6.594;2023-08-07T14:32:06;5.78;;;3.20;;
51594;SDS011;37677;53.254;6.594;2023-08-07T14:34:35;9.68;;;3.60;;
51594;SDS011;37677;53.254;6.594;2023-08-07T14:37:05;7.72;;;2.70;;
51594;SDS011;37677;53.254;6.594;2023-08-07T14:39:37;8.02;;;3.15;;
51594;SDS011;37677;53.254;6.594;2023-08-07T14:42:10;6.85;;;2.70;;
51594;SDS011;37677;53.254;6.594;2023-08-07T14:44:36;5.30;;;2.40;;
51594;SDS011;37677;53.254;6.594;2023-08-07T14:47:02;9.93;;;3.08;;
51594;SDS011;37677;53.254;6.594;2023-08-07T14:49:38;7.55;;;2.85;;
51594;SDS011;37677;53.254;6.594;2023-08-07T14:52:07;9.13;;;2.92;;
51594;SDS011;37677;53.254;6.594;2023-08-07T14:54:33;5.97;;;2.55;;
51594;SDS011;37677;53.254;6.594;2023-08-07T14:59:54;9.88;;;2.58;;
51594;SDS011;37677;53.254;6.594;2023-08-07T15:02:23;8.98;;;2.75;;
51594;SDS011;37677;53.254;6.594;2023-08-07T15:04:59;7.50;;;2.65;;
51594;SDS011;37677;53.254;6.594;2023-08-07T15:07:28;8.00;;;2.55;;
51594;SDS011;37677;53.254;6.594;2023-08-07T15:13:13;6.93;;;2.50;;
51594;SDS011;37677;53.254;6.594;2023-08-07T15:15:39;9.88;;;2.97;;
51594;SDS011;37677;53.254;6.594;2023-08-07T15:18:09;8.15;;;2.90;;
51594;SDS011;37677;53.254;6.594;2023-08-07T15:20:37;7.97;;;2.70;;
51594;SDS011;37677;53.254;6.594;2023-08-07T15:23:07;8.57;;;3.13;;
51594;SDS011;37677;53.254;6.594;2023-08-07T15:25:33;9.23;;;2.92;;
51594;SDS011;37677;53.254;6.594;2023-08-07T15:28:09;6.95;;;2.70;;
51594;SDS011;37677;53.254;6.594;2023-08-07T15:30:35;10.93;;;3.45;;
51594;SDS011;37677;53.254;6.594;2023-08-07T15:33:06;8.77;;;3.10;;
51594;SDS011;37677;53.254;6.594;2023-08-07T15:35:53;6.88;;;2.63;;
51594;SDS011;37677;53.254;6.594;2023-08-07T15:38:28;8.93;;;3.00;;
51594;SDS011;37677;53.254;6.594;2023-08-07T15:40:55;10.65;;;2.75;;
51594;SDS011;37677;53.254;6.594;2023-08-07T15:43:24;5.30;;;2.28;;
51594;SDS011;37677;53.254;6.594;2023-08-07T15:45:51;10.20;;;2.30;;
51594;SDS011;37677;53.254;6.594;2023-08-07T15:51:29;4.82;;;1.90;;
51594;SDS011;37677;53.254;6.594;2023-08-07T15:53:55;7.63;;;2.75;;
51594;SDS011;37677;53.254;6.594;2023-08-07T15:56:28;7.63;;;2.50;;
51594;SDS011;37677;53.254;6.594;2023-08-07T15:59:04;6.97;;;2.20;;
51594;SDS011;37677;53.254;6.594;2023-08-07T16:01:41;7.35;;;2.53;;
51594;SDS011;37677;53.254;6.594;2023-08-07T16:04:18;5.95;;;2.22;;
51594;SDS011;37677;53.254;6.594;2023-08-07T16:07:03;10.20;;;3.05;;
51594;SDS011;37677;53.254;6.594;2023-08-07T16:09:29;9.95;;;2.50;;
51594;SDS011;37677;53.254;6.594;2023-08-07T16:12:16;6.90;;;2.13;;
51594;SDS011;37677;53.254;6.594;2023-08-07T16:15:05;6.60;;;2.22;;
51594;SDS011;37677;53.254;6.594;2023-08-07T16:17:35;8.82;;;2.50;;
51594;SDS011;37677;53.254;6.594;2023-08-07T16:20:01;6.68;;;2.38;;
51594;SDS011;37677;53.254;6.594;2023-08-07T16:22:33;6.90;;;2.20;;
51594;SDS011;37677;53.254;6.594;2023-08-07T16:25:16;6.85;;;2.10;;
51594;SDS011;37677;53.254;6.594;2023-08-07T16:27:46;7.10;;;2.33;;
51594;SDS011;37677;53.254;6.594;2023-08-07T16:33:20;6.47;;;2.30;;
51594;SDS011;37677;53.254;6.594;2023-08-07T16:35:46;8.48;;;2.88;;
51594;SDS011;37677;53.254;6.594;2023-08-07T16:41:32;6.18;;;2.63;;
51594;SDS011;37677;53.254;6.594;2023-08-07T16:44:10;6.60;;;2.33;;
51594;SDS011;37677;53.254;6.594;2023-08-07T16:46:38;10.27;;;2.47;;
51594;SDS011;37677;53.254;6.594;2023-08-07T16:49:35;9.48;;;2.92;;
51594;SDS011;37677;53.254;6.594;2023-08-07T16:53:02;9.32;;;2.80;;
51594;SDS011;37677;53.254;6.594;2023-08-07T16:55:50;8.02;;;2.35;;
51594;SDS011;37677;53.254;6.594;2023-08-07T16:58:16;8.77;;;3.05;;
51594;SDS011;37677;53.254;6.594;2023-08-07T17:01:13;8.02;;;2.97;;